createdAt,value
2023-01-10T00:02:12.408Z,4.12
2023-01-10T00:04:40.734Z,4.22
2023-01-10T00:07:08.931Z,4.20
2023-01-10T00:09:38.202Z,4.19
2023-01-10T00:12:31.191Z,4.19
2023-01-10T00:15:05.937Z,4.16
2023-01-10T00:17:34.343Z,4.13
2023-01-10T00:20:22.867Z,4.12
2023-01-10T00:22:52.003Z,4.09
2023-01-10T00:25:20.971Z,4.05
2023-01-10T00:27:51.466Z,3.90
2023-01-10T00:30:19.797Z,4.04
2023-01-10T00:32:54.756Z,4.04
2023-01-10T00:35:23.481Z,4.04
2023-01-10T00:37:53.495Z,4.05
2023-01-10T00:40:21.712Z,4.08
2023-01-10T00:43:08.253Z,4.09
2023-01-10T00:45:36.543Z,4.11
2023-01-10T00:48:07.229Z,4.12
2023-01-10T00:50:43.376Z,4.12
2023-01-10T00:53:17.758Z,4.13
2023-01-10T00:55:49.479Z,4.17
2023-01-10T00:58:17.939Z,4.22
2023-01-10T01:00:46.536Z,4.27
2023-01-10T01:03:15.239Z,4.33
2023-01-10T01:05:45.644Z,4.36
2023-01-10T01:08:16.409Z,4.40
2023-01-10T01:10:44.733Z,4.43
2023-01-10T01:13:20.162Z,4.45
2023-01-10T01:15:48.796Z,4.49
2023-01-10T01:18:21.192Z,4.53
2023-01-10T01:20:59.827Z,4.57
2023-01-10T01:23:28.684Z,4.59
2023-01-10T01:25:57.755Z,4.60
2023-01-10T01:28:26.888Z,4.63
2023-01-10T01:30:55.127Z,4.64
2023-01-10T01:33:23.931Z,4.66
2023-01-10T01:35:52.069Z,4.66
2023-01-10T01:38:20.178Z,4.68
2023-01-10T01:40:48.198Z,4.67
2023-01-10T01:43:25.681Z,4.66
2023-01-10T01:45:55.276Z,4.65
2023-01-10T01:48:39.513Z,4.64
2023-01-10T01:51:18.083Z,4.62
2023-01-10T01:53:54.367Z,4.58
2023-01-10T01:56:48.161Z,4.54
2023-01-10T01:59:21.517Z,4.54
2023-01-10T02:01:54.180Z,4.52
2023-01-10T02:04:33.905Z,4.50
2023-01-10T02:07:02.110Z,4.49
2023-01-10T02:09:50.787Z,4.48
2023-01-10T02:12:28.453Z,4.47
2023-01-10T02:15:04.430Z,4.47
2023-01-10T02:17:44.687Z,4.45
2023-01-10T02:20:18.863Z,4.45
2023-01-10T02:23:24.584Z,4.45
2023-01-10T02:26:16.829Z,4.46
2023-01-10T02:29:10.896Z,4.47
2023-01-10T02:35:52.197Z,4.48
2023-01-10T02:38:47.447Z,4.48
2023-01-10T02:41:49.777Z,4.49
2023-01-10T02:44:46.418Z,4.50
2023-01-10T02:47:26.873Z,4.51
2023-01-10T02:50:04.148Z,4.51
2023-01-10T02:52:32.680Z,4.53
2023-01-10T02:55:03.506Z,4.52
2023-01-10T02:57:39.781Z,4.52
2023-01-10T03:00:28.803Z,4.53
2023-01-10T03:03:14.451Z,4.55
2023-01-10T03:06:13.391Z,4.55
2023-01-10T03:08:55.251Z,4.59
2023-01-10T03:11:29.591Z,4.60
2023-01-10T03:14:00.495Z,4.61
2023-01-10T03:16:31.521Z,4.63
2023-01-10T03:19:20.692Z,4.65
2023-01-10T03:21:52.545Z,4.66
2023-01-10T03:24:25.206Z,4.66
2023-01-10T03:27:13.765Z,4.66
2023-01-10T03:30:02.340Z,4.65
2023-01-10T03:32:32.384Z,4.63
2023-01-10T03:35:02.602Z,4.61
2023-01-10T03:37:59.641Z,4.59
2023-01-10T03:40:43.431Z,4.56
2023-01-10T03:43:44.460Z,4.53
2023-01-10T03:46:21.561Z,4.53
2023-01-10T03:48:51.623Z,4.52
2023-01-10T03:51:20.529Z,4.53
2023-01-10T03:53:48.744Z,4.52
2023-01-10T03:56:16.925Z,4.52
2023-01-10T03:58:47.058Z,4.52
2023-01-10T04:01:15.952Z,4.52
2023-01-10T04:03:46.072Z,4.52
2023-01-10T04:06:14.397Z,4.52
2023-01-10T04:08:42.624Z,4.53
2023-01-10T04:11:10.914Z,4.53
2023-01-10T04:13:40.875Z,4.54
2023-01-10T04:16:09.265Z,4.57
2023-01-10T04:18:37.354Z,4.59
2023-01-10T04:21:06.496Z,4.60
2023-01-10T04:23:34.538Z,4.62
2023-01-10T04:26:02.613Z,4.65
2023-01-10T04:28:30.521Z,4.67
2023-01-10T04:30:58.698Z,4.68
2023-01-10T04:33:28.178Z,4.70
2023-01-10T04:35:56.263Z,4.72
2023-01-10T04:38:24.212Z,4.75
2023-01-10T04:40:54.733Z,4.76
2023-01-10T04:43:25.066Z,4.77
2023-01-10T04:45:53.320Z,4.79
2023-01-10T04:48:21.546Z,4.82
2023-01-10T04:50:53.166Z,4.83
2023-01-10T04:53:21.985Z,4.84
2023-01-10T04:55:49.960Z,4.84
2023-01-10T04:58:18.234Z,4.85
2023-01-10T05:00:46.301Z,4.87
2023-01-10T05:03:19.434Z,4.89
2023-01-10T05:05:47.749Z,4.89
2023-01-10T05:08:32.051Z,4.90
2023-01-10T05:11:05.279Z,4.91
2023-01-10T05:13:53.060Z,4.91
2023-01-10T05:16:29.154Z,4.87
2023-01-10T05:18:58.534Z,4.92
2023-01-10T05:21:44.874Z,4.91
2023-01-10T05:24:30.773Z,4.93
2023-01-10T05:27:06.224Z,4.93
2023-01-10T05:29:38.363Z,4.96
2023-01-10T05:32:06.860Z,4.98
2023-01-10T05:34:35.239Z,4.99
2023-01-10T05:37:03.728Z,5.00
2023-01-10T05:39:32.109Z,5.00
2023-01-10T05:42:00.677Z,5.01
2023-01-10T05:44:28.109Z,5.01
2023-01-10T05:46:56.015Z,5.02
2023-01-10T05:49:23.875Z,5.05
2023-01-10T05:51:51.745Z,5.05
2023-01-10T05:54:19.572Z,5.05
2023-01-10T05:56:47.280Z,5.06
2023-01-10T05:59:27.461Z,5.07
2023-01-10T06:01:44.495Z,5.08
2023-01-10T06:04:12.335Z,5.09
2023-01-10T06:06:40.189Z,5.10
2023-01-10T06:09:07.877Z,5.11
2023-01-10T06:11:37.711Z,5.12
2023-01-10T06:14:07.266Z,5.12
2023-01-10T06:16:35.059Z,5.12
2023-01-10T06:19:02.942Z,5.14
2023-01-10T06:21:30.711Z,5.13
2023-01-10T06:23:58.576Z,5.14
2023-01-10T06:26:26.420Z,5.14
2023-01-10T06:28:54.362Z,5.15
2023-01-10T06:31:22.783Z,5.15
2023-01-10T06:33:51.432Z,5.17
2023-01-10T06:36:19.765Z,5.18
2023-01-10T06:38:47.953Z,5.19
2023-01-10T06:41:15.675Z,5.19
2023-01-10T06:43:45.840Z,5.20
2023-01-10T06:46:19.083Z,5.20
2023-01-10T06:48:47.808Z,5.21
2023-01-10T06:51:19.162Z,5.23
2023-01-10T06:53:46.501Z,5.24
2023-01-10T06:56:14.288Z,5.24
2023-01-10T06:58:42.017Z,5.27
2023-01-10T07:01:19.593Z,5.29
2023-01-10T07:03:48.353Z,5.31
2023-01-10T07:06:16.338Z,5.34
2023-01-10T07:08:45.918Z,5.36
2023-01-10T07:11:16.542Z,5.41
2023-01-10T07:13:44.566Z,5.46
2023-01-10T07:16:15.591Z,5.48
2023-01-10T07:18:43.673Z,5.51
2023-01-10T07:21:12.138Z,5.55
2023-01-10T07:23:40.307Z,5.57
2023-01-10T07:26:11.200Z,5.58
2023-01-10T07:28:38.791Z,5.59
2023-01-10T07:31:06.583Z,5.62
2023-01-10T07:33:34.347Z,5.65
2023-01-10T07:36:03.371Z,5.71
2023-01-10T07:38:31.154Z,5.75
2023-01-10T07:41:04.448Z,5.81
2023-01-10T07:43:33.469Z,5.88
2023-01-10T07:46:04.112Z,5.97
2023-01-10T07:48:31.827Z,6.10
2023-01-10T07:51:01.342Z,6.29
2023-01-10T07:53:29.393Z,6.51
2023-01-10T07:56:02.683Z,6.73
2023-01-10T07:58:31.147Z,6.94
2023-01-10T08:01:01.950Z,7.14
2023-01-10T08:03:30.323Z,7.32
2023-01-10T08:06:04.367Z,7.48
2023-01-10T08:08:34.004Z,7.62
2023-01-10T08:11:02.269Z,7.75
2023-01-10T08:13:31.483Z,7.86
2023-01-10T08:15:59.691Z,7.99
2023-01-10T08:18:27.675Z,8.08
2023-01-10T08:20:55.589Z,8.15
2023-01-10T08:23:23.547Z,8.23
2023-01-10T08:25:53.975Z,8.27
2023-01-10T08:28:21.691Z,8.24
2023-01-10T08:30:51.575Z,8.26
2023-01-10T08:33:19.292Z,8.26
2023-01-10T08:35:47.196Z,8.29
2023-01-10T08:38:15.877Z,8.33
2023-01-10T08:40:43.537Z,8.38
2023-01-10T08:43:12.461Z,8.40
2023-01-10T08:45:42.092Z,8.39
2023-01-10T08:48:10.297Z,8.35
2023-01-10T08:50:38.187Z,8.35
2023-01-10T08:53:05.941Z,8.33
2023-01-10T08:55:36.800Z,8.35
2023-01-10T08:58:04.566Z,8.39
2023-01-10T09:00:32.406Z,8.45
2023-01-10T09:03:00.535Z,8.54
2023-01-10T09:05:28.703Z,8.55
2023-01-10T09:08:02.082Z,8.58
2023-01-10T09:10:31.653Z,8.58
2023-01-10T09:13:01.103Z,8.56
2023-01-10T09:15:35.208Z,8.56
2023-01-10T09:18:07.101Z,8.55
2023-01-10T09:20:37.862Z,8.56
2023-01-10T09:23:09.393Z,8.56
2023-01-10T09:25:37.972Z,8.56
2023-01-10T09:28:06.738Z,8.56
2023-01-10T09:30:34.836Z,8.55
2023-01-10T09:33:04.837Z,8.54
2023-01-10T09:35:35.640Z,8.55
2023-01-10T09:38:06.119Z,8.60
2023-01-10T09:41:12.422Z,8.66
2023-01-10T09:43:52.808Z,8.74
2023-01-10T09:46:53.703Z,8.79
2023-01-10T09:49:48.919Z,8.83
2023-01-10T09:52:27.676Z,8.86
2023-01-10T09:54:58.655Z,8.86
2023-01-10T09:57:26.433Z,8.88
2023-01-10T09:59:54.277Z,8.88
2023-01-10T10:02:34.943Z,8.89
2023-01-10T10:05:20.169Z,8.88
2023-01-10T10:07:56.142Z,8.84
2023-01-10T10:10:33.276Z,8.82
2023-01-10T10:13:37.748Z,8.79
2023-01-10T10:16:46.863Z,8.77
2023-01-10T10:20:02.763Z,8.75
2023-01-10T10:23:03.597Z,8.74
2023-01-10T10:25:57.009Z,8.75
2023-01-10T10:28:56.375Z,8.77
2023-01-10T10:31:52.564Z,8.79
2023-01-10T10:34:37.378Z,8.83
2023-01-10T10:37:33.242Z,8.96
2023-01-10T10:40:22.328Z,9.12
2023-01-10T10:42:53.584Z,9.30
2023-01-10T10:45:29.440Z,9.50
2023-01-10T10:48:05.650Z,9.60
2023-01-10T10:50:35.692Z,9.64
2023-01-10T10:53:04.773Z,9.66
2023-01-10T10:55:37.066Z,9.71
2023-01-10T10:58:08.277Z,9.75
2023-01-10T11:00:48.853Z,9.79
2023-01-10T11:03:49.583Z,9.82
2023-01-10T11:06:19.776Z,9.84
2023-01-10T11:08:52.486Z,9.84
2023-01-10T11:11:37.046Z,9.82
2023-01-10T11:14:08.529Z,9.79
2023-01-10T11:16:44.399Z,9.77
2023-01-10T11:19:24.902Z,9.76
2023-01-10T11:22:02.525Z,9.77
2023-01-10T11:24:40.593Z,9.73
2023-01-10T11:27:18.505Z,9.70
2023-01-10T11:29:50.504Z,9.64
2023-01-10T11:32:22.994Z,9.58
2023-01-10T11:35:01.426Z,9.49
2023-01-10T11:37:32.921Z,9.42
2023-01-10T11:40:25.653Z,9.36
2023-01-10T11:43:06.843Z,9.31
2023-01-10T11:46:06.807Z,9.29
2023-01-10T11:49:08.631Z,9.25
2023-01-10T11:51:34.674Z,9.20
2023-01-10T11:54:15.051Z,9.16
2023-01-10T11:57:00.237Z,9.14
2023-01-10T11:59:28.868Z,9.11
2023-01-10T12:02:22.791Z,9.11
2023-01-10T12:04:52.752Z,9.12
2023-01-10T12:07:23.787Z,9.14
2023-01-10T12:10:03.415Z,9.14
2023-01-10T12:12:38.053Z,9.12
2023-01-10T12:15:30.425Z,9.13
2023-01-10T12:18:05.320Z,9.18
2023-01-10T12:20:38.635Z,9.29
2023-01-10T12:23:14.708Z,9.33
2023-01-10T12:25:45.157Z,9.35
2023-01-10T12:28:23.504Z,9.34
2023-01-10T12:30:55.818Z,9.28
2023-01-10T12:33:34.993Z,9.24
2023-01-10T12:36:25.577Z,9.20
2023-01-10T12:39:23.096Z,9.20
2023-01-10T12:42:30.269Z,9.20
2023-01-10T12:45:10.072Z,9.19
2023-01-10T12:48:07.450Z,9.15
2023-01-10T12:50:53.127Z,9.14
2023-01-10T12:53:34.173Z,9.13
2023-01-10T12:56:08.664Z,9.12
2023-01-10T12:58:51.832Z,9.10
2023-01-10T13:01:27.964Z,9.07
2023-01-10T13:04:06.223Z,9.06
2023-01-10T13:06:37.881Z,9.06
2023-01-10T13:09:27.804Z,8.94
2023-01-10T13:12:12.269Z,9.07
2023-01-10T13:15:13.145Z,9.06
2023-01-10T13:17:48.206Z,9.02
2023-01-10T13:20:26.375Z,8.98
2023-01-10T13:23:00.792Z,8.94
2023-01-10T13:25:34.549Z,8.91
2023-01-10T13:28:28.149Z,8.88
2023-01-10T13:31:00.970Z,8.85
2023-01-10T13:33:33.013Z,8.80
2023-01-10T13:36:14.965Z,8.77
2023-01-10T13:38:50.988Z,8.75
2023-01-10T13:41:37.920Z,8.74
2023-01-10T13:44:11.191Z,8.70
2023-01-10T13:46:51.805Z,8.68
2023-01-10T13:49:40.100Z,8.64
2023-01-10T13:52:29.792Z,8.64
2023-01-10T13:55:03.298Z,8.64
2023-01-10T13:57:55.983Z,8.63
2023-01-10T14:00:53.489Z,8.60
2023-01-10T14:03:53.144Z,8.57
2023-01-10T14:06:36.903Z,8.53
2023-01-10T14:09:28.913Z,8.48
2023-01-10T14:23:18.221Z,8.24
2023-01-10T14:25:55.319Z,8.17
2023-01-10T14:28:28.210Z,8.08
2023-01-10T14:31:21.809Z,8.03
2023-01-10T14:33:50.497Z,7.98
2023-01-10T14:36:34.043Z,7.92
2023-01-10T14:39:06.768Z,7.86
2023-01-10T14:41:43.548Z,7.82
2023-01-10T14:44:32.943Z,7.78
2023-01-10T14:47:04.089Z,7.72
2023-01-10T14:49:50.796Z,7.64
2023-01-10T14:52:22.261Z,7.59
2023-01-10T14:55:22.221Z,7.53
2023-01-10T14:58:01.751Z,7.48
2023-01-10T15:00:33.825Z,7.38
2023-01-10T15:03:04.408Z,7.31
2023-01-10T15:05:40.604Z,7.24
2023-01-10T15:08:25.111Z,7.21
2023-01-10T15:11:01.684Z,7.14
2023-01-10T15:13:35.251Z,7.08
2023-01-10T15:16:07.485Z,7.05
2023-01-10T15:18:43.402Z,7.01
2023-01-10T15:21:14.322Z,6.97
2023-01-10T15:23:45.940Z,6.92
2023-01-10T15:26:30.217Z,6.90
2023-01-10T15:29:16.525Z,6.86
2023-01-10T15:31:44.721Z,6.84
2023-01-10T15:34:22.461Z,6.80
2023-01-10T15:36:57.309Z,6.77
2023-01-10T15:39:32.823Z,6.74
2023-01-10T15:42:09.165Z,6.72
2023-01-10T15:44:44.745Z,6.69
2023-01-10T15:47:39.479Z,6.66
2023-01-10T15:50:28.872Z,6.64
2023-01-10T15:53:00.800Z,6.60
2023-01-10T15:55:46.645Z,6.56
2023-01-10T15:58:30.684Z,6.54
2023-01-10T16:01:01.452Z,6.52
2023-01-10T16:03:36.928Z,6.54
2023-01-10T16:06:08.407Z,6.55
2023-01-10T16:08:38.643Z,6.57
2023-01-10T16:11:11.982Z,6.57
2023-01-10T16:13:41.058Z,6.53
2023-01-10T16:16:14.424Z,6.58
2023-01-10T16:18:42.241Z,6.59
2023-01-10T16:21:11.412Z,6.59
2023-01-10T16:23:43.659Z,6.58
2023-01-10T16:26:19.758Z,6.56
2023-01-10T16:28:47.759Z,6.56
2023-01-10T16:31:15.506Z,6.55
2023-01-10T16:33:44.978Z,6.55
2023-01-10T16:36:19.643Z,6.56
2023-01-10T16:38:47.840Z,6.56
2023-01-10T16:41:35.088Z,6.54
2023-01-10T16:44:02.970Z,6.55
2023-01-10T16:46:31.736Z,6.54
2023-01-10T16:48:59.987Z,6.55
2023-01-10T16:51:31.815Z,6.57
2023-01-10T16:54:00.860Z,6.57
2023-01-10T16:56:30.127Z,6.60
2023-01-10T16:58:59.348Z,6.62
2023-01-10T17:01:35.904Z,6.63
2023-01-10T17:04:29.540Z,6.65
2023-01-10T17:06:58.853Z,6.67
2023-01-10T17:09:29.882Z,6.69
2023-01-10T17:12:18.616Z,6.73
2023-01-10T17:14:50.812Z,6.74
2023-01-10T17:17:31.811Z,6.76
2023-01-10T17:20:00.662Z,6.77
2023-01-10T17:22:30.489Z,6.77
2023-01-10T17:24:58.535Z,6.81
2023-01-10T17:27:26.606Z,6.81
2023-01-10T17:29:54.525Z,6.83
2023-01-10T17:32:22.537Z,6.84
2023-01-10T17:34:55.249Z,6.86
2023-01-10T17:37:23.104Z,6.87
2023-01-10T17:39:50.825Z,6.90
2023-01-10T17:42:19.858Z,6.92
2023-01-10T17:44:49.259Z,6.97
2023-01-10T17:47:17.724Z,7.01
2023-01-10T17:49:49.480Z,7.05
2023-01-10T17:52:17.803Z,7.09
2023-01-10T17:54:52.742Z,7.12
2023-01-10T17:57:21.090Z,7.14
2023-01-10T18:03:45.744Z,7.17
2023-01-10T18:07:03.315Z,7.20
2023-01-10T18:10:04.671Z,7.23
2023-01-10T18:12:40.089Z,7.26
2023-01-10T18:15:11.227Z,7.29
2023-01-10T18:24:09.990Z,7.37
2023-01-10T18:26:37.996Z,7.40
2023-01-10T18:29:05.957Z,7.40
2023-01-10T18:31:34.899Z,7.39
2023-01-10T18:34:02.844Z,7.39
2023-01-10T18:36:38.698Z,7.39
2023-01-10T18:39:06.497Z,7.37
2023-01-10T18:41:34.525Z,7.36
2023-01-10T18:44:02.623Z,7.35
2023-01-10T18:46:31.930Z,7.32
2023-01-10T18:49:00.274Z,7.31
2023-01-10T18:51:28.253Z,7.28
2023-01-10T18:53:56.166Z,7.28
2023-01-10T18:56:24.480Z,7.26
2023-01-10T18:58:52.697Z,7.25
2023-01-10T19:01:23.009Z,7.25
2023-01-10T19:03:51.680Z,7.23
2023-01-10T19:06:22.360Z,7.24
2023-01-10T19:08:51.181Z,7.23
2023-01-10T19:11:21.020Z,7.20
2023-01-10T19:13:53.456Z,7.18
2023-01-10T19:16:25.139Z,7.17
2023-01-10T19:19:00.985Z,7.14
2023-01-10T19:21:32.344Z,7.13
2023-01-10T19:24:04.648Z,7.12
2023-01-10T19:26:35.988Z,7.09
2023-01-10T19:29:04.796Z,7.09
2023-01-10T19:31:36.605Z,7.07
2023-01-10T19:34:07.968Z,7.10
2023-01-10T19:36:36.041Z,7.13
2023-01-10T19:39:06.782Z,7.17
2023-01-10T19:41:35.845Z,7.23
2023-01-10T19:44:08.777Z,7.26
2023-01-10T19:46:40.455Z,7.27
2023-01-10T19:49:09.339Z,7.27
2023-01-10T19:51:42.392Z,7.26
2023-01-10T19:54:13.338Z,7.26
2023-01-10T19:56:41.359Z,7.27
2023-01-10T19:59:13.441Z,7.31
2023-01-10T20:01:43.527Z,7.33
2023-01-10T20:04:17.025Z,7.33
2023-01-10T20:06:48.948Z,7.36
2023-01-10T20:09:17.160Z,7.40
2023-01-10T20:11:46.375Z,7.49
2023-01-10T20:14:19.635Z,7.53
2023-01-10T20:16:48.977Z,7.56
2023-01-10T20:19:18.239Z,7.62
2023-01-10T20:21:48.407Z,7.64
2023-01-10T20:24:20.540Z,7.70
2023-01-10T20:26:50.200Z,7.73
2023-01-10T20:29:19.164Z,7.76
2023-01-10T20:31:50.193Z,7.81
2023-01-10T20:34:22.512Z,7.85
2023-01-10T20:36:54.167Z,7.86
2023-01-10T20:39:27.302Z,7.90
2023-01-10T20:41:55.639Z,7.92
2023-01-10T20:44:25.604Z,7.91
2023-01-10T20:46:54.954Z,7.92
2023-01-10T20:49:25.761Z,7.92
2023-01-10T20:51:53.934Z,7.95
2023-01-10T20:54:25.248Z,7.97
2023-01-10T20:56:52.972Z,7.96
2023-01-10T20:59:21.737Z,7.96
2023-01-10T21:01:50.866Z,7.96
2023-01-10T21:04:18.794Z,7.95
2023-01-10T21:06:47.039Z,7.95
2023-01-10T21:09:16.204Z,7.93
2023-01-10T21:11:57.860Z,7.92
2023-01-10T21:14:14.383Z,7.92
2023-01-10T21:16:42.413Z,7.93
2023-01-10T21:19:12.309Z,7.92
2023-01-10T21:21:44.422Z,7.95
2023-01-10T21:24:12.680Z,7.94
2023-01-10T21:26:41.946Z,7.94
2023-01-10T21:29:12.818Z,7.92
2023-01-10T21:31:40.092Z,7.93
2023-01-10T21:34:08.158Z,7.94
2023-01-10T21:36:38.837Z,7.93
2023-01-10T21:39:08.001Z,7.95
2023-01-10T21:41:54.364Z,7.94
2023-01-10T21:44:22.676Z,7.94
2023-01-10T21:46:52.229Z,7.95
2023-01-10T21:49:20.865Z,7.94
2023-01-10T21:51:48.720Z,7.92
2023-01-10T21:54:20.064Z,7.91
2023-01-10T21:56:47.740Z,7.91
2023-01-10T21:59:18.598Z,7.88
2023-01-10T22:01:47.013Z,7.89
2023-01-10T22:04:17.326Z,7.89
2023-01-10T22:06:45.444Z,7.88
2023-01-10T22:09:13.109Z,7.87
2023-01-10T22:11:40.874Z,7.86
2023-01-10T22:14:10.441Z,7.84
2023-01-10T22:16:38.135Z,7.82
2023-01-10T22:19:06.151Z,7.80
2023-01-10T22:21:36.645Z,7.81
2023-01-10T22:24:06.495Z,7.82
2023-01-10T22:26:34.567Z,7.85
2023-01-10T22:29:03.827Z,7.87
2023-01-10T22:31:32.952Z,7.90
2023-01-10T22:34:00.694Z,7.89
2023-01-10T22:36:28.657Z,7.91
2023-01-10T22:38:56.430Z,7.92
2023-01-10T22:41:26.333Z,7.96
2023-01-10T22:43:55.368Z,7.98
2023-01-10T22:46:23.745Z,7.98
2023-01-10T22:48:52.378Z,8.00
2023-01-10T22:51:21.801Z,8.05
2023-01-10T22:53:58.793Z,8.07
2023-01-10T22:56:26.773Z,8.06
2023-01-10T22:58:57.286Z,8.08
2023-01-10T23:01:25.725Z,8.10
2023-01-10T23:03:53.421Z,8.08
2023-01-10T23:06:21.483Z,8.08
2023-01-10T23:08:50.111Z,8.09
2023-01-10T23:11:20.375Z,8.13
2023-01-10T23:13:48.353Z,8.15
2023-01-10T23:16:24.841Z,8.13
2023-01-10T23:18:52.732Z,8.14
2023-01-10T23:21:20.485Z,8.16
2023-01-10T23:23:48.527Z,8.15
2023-01-10T23:26:16.240Z,8.13
2023-01-10T23:28:47.895Z,8.10
2023-01-10T23:31:23.112Z,8.10
2023-01-10T23:33:51.287Z,8.13
2023-01-10T23:36:19.648Z,8.15
2023-01-10T23:38:47.674Z,8.13
2023-01-10T23:41:15.839Z,8.13
2023-01-10T23:43:43.891Z,8.12
2023-01-10T23:46:13.272Z,8.12
2023-01-10T23:48:42.668Z,8.10
2023-01-10T23:51:10.983Z,8.08
2023-01-10T23:53:40.269Z,8.05
2023-01-10T23:56:14.247Z,8.01
2023-01-10T23:58:42.539Z,7.99
